Saint Louis, Missouri
Traffic Map
Current Weather Conditions
Saint Louis, Missouri
Clear
Clear
83°
Feels Like: 90°
Wind Chill: 83° Ceiling: Unl
Heat Index: 90° Visibility: 10mi
Dew Point: 75° Wind: 6mph
Humidity: 77% Direction: 160° (SSE)
Pressure: 29.89in Gusts: 0mph
Raw Report DataKCPS 272253Z 16005KT 10SM CLR 28/24 A2989 RMK AO2 SLP116 T02830239
Traffic Incident Summary
Active as of:
Severity:
Category:
InformationThere was an issue retrieving the traffic information for this location. Please try a different location or try again shortly.
Advertisements
Track Severe Weather on mobile